Time;durP1;ratioP1;P1;durP2;ratioP2;P2;SDS_P1;SDS_P2;PMS_P1;PMS_P2;Temp;Humidity;BMP_temperature;BMP_pressure;BME280_temperature;BME280_humidity;BME280_pressure;Samples;Min_cycle;Max_cycle;Signal;HPM_P1;HPM_P2
2023/08/14 00:00:59;;;;;;;1.02;0.60;;;15.10;99.90;;;;;;4954963;28;20129;-75
2023/08/14 00:03:25;;;;;;;0.65;0.60;;;15.00;99.90;;;;;;4987963;28;20106;-75
2023/08/14 00:05:50;;;;;;;1.40;0.73;;;15.00;99.90;;;;;;4971206;28;20405;-75
2023/08/14 00:08:16;;;;;;;0.55;0.55;;;15.00;99.90;;;;;;4950088;28;20053;-75
2023/08/14 00:10:42;;;;;;;0.77;0.75;;;15.00;99.90;;;;;;4955423;28;20101;-75
2023/08/14 00:13:08;;;;;;;0.57;0.50;;;14.90;99.90;;;;;;4969380;28;20053;-75
2023/08/14 00:15:33;;;;;;;1.58;0.80;;;14.90;99.90;;;;;;4971192;28;20039;-75
2023/08/14 00:17:59;;;;;;;1.20;0.60;;;14.90;99.90;;;;;;4976739;28;20485;-75
2023/08/14 00:20:25;;;;;;;0.75;0.70;;;14.90;99.90;;;;;;4958042;28;20046;-74
2023/08/14 00:22:50;;;;;;;0.63;0.60;;;14.90;99.90;;;;;;4971549;28;20126;-74
2023/08/14 00:25:16;;;;;;;0.80;0.80;;;14.90;99.90;;;;;;4965524;28;20121;-74
2023/08/14 00:27:42;;;;;;;1.02;0.60;;;14.80;99.90;;;;;;4972023;28;20126;-75
2023/08/14 00:30:08;;;;;;;1.15;0.80;;;14.90;99.90;;;;;;4969493;28;20043;-75
2023/08/14 00:32:33;;;;;;;0.77;0.77;;;14.90;99.90;;;;;;4971731;28;20486;-75
2023/08/14 00:34:59;;;;;;;0.88;0.70;;;14.80;99.90;;;;;;4951625;28;20039;-75
2023/08/14 00:37:39;;;;;;;1.00;0.73;;;14.80;99.90;;;;;;4965505;28;20054;-74
2023/08/14 00:40:07;;;;;;;0.65;0.65;;;14.80;99.90;;;;;;4990472;28;20043;-75
2023/08/14 00:42:33;;;;;;;0.70;0.70;;;14.80;99.90;;;;;;4969921;28;20379;-75
2023/08/14 00:44:59;;;;;;;0.80;0.70;;;14.80;99.90;;;;;;4959871;28;20520;-75
2023/08/14 00:47:24;;;;;;;0.60;0.60;;;14.80;99.90;;;;;;4971684;28;20043;-75
2023/08/14 00:49:50;;;;;;;0.60;0.60;;;14.80;99.90;;;;;;4971766;28;20042;-75
2023/08/14 00:52:16;;;;;;;0.70;0.70;;;14.70;99.90;;;;;;4955857;28;20077;-74
2023/08/14 00:54:42;;;;;;;1.25;0.77;;;14.80;99.90;;;;;;4971361;28;20393;-75
2023/08/14 00:57:08;;;;;;;1.00;0.75;;;14.80;99.90;;;;;;4971853;28;20058;-75
2023/08/14 00:59:34;;;;;;;0.85;0.77;;;14.80;99.90;;;;;;4971442;28;20494;-75
2023/08/14 01:02:00;;;;;;;1.10;1.00;;;14.80;99.90;;;;;;4971618;28;20050;-75
2023/08/14 01:04:26;;;;;;;0.90;0.80;;;14.80;99.90;;;;;;4971235;28;20394;-75
2023/08/14 01:06:51;;;;;;;0.85;0.73;;;14.80;99.90;;;;;;4971414;28;20046;-75
2023/08/14 01:09:17;;;;;;;0.88;0.80;;;14.90;99.90;;;;;;4960478;28;20443;-75
2023/08/14 01:11:50;;;;;;;;;;;14.80;99.90;;;;;;4969102;28;20043;-75
2023/08/14 01:14:24;;;;;;;1.50;0.73;;;14.80;99.90;;;;;;4971367;28;19921;-75
2023/08/14 01:16:56;;;;;;;0.85;0.73;;;14.90;99.90;;;;;;4971087;28;20699;-75
2023/08/14 01:19:26;;;;;;;1.45;0.90;;;14.90;99.90;;;;;;4970852;28;20088;-74
2023/08/14 01:22:40;;;;;;;0.70;0.70;;;14.90;99.90;;;;;;4954867;28;20121;-74
2023/08/14 01:25:25;;;;;;;1.10;0.80;;;14.90;99.90;;;;;;4965694;28;20050;-75
2023/08/14 01:27:53;;;;;;;0.77;0.70;;;14.80;99.90;;;;;;4970994;28;20047;-74
2023/08/14 01:30:22;;;;;;;0.70;0.70;;;14.80;99.90;;;;;;4970953;28;20043;-75
2023/08/14 01:32:48;;;;;;;0.80;0.80;;;14.90;99.90;;;;;;4971193;28;20042;-75
2023/08/14 01:35:20;;;;;;;0.80;0.75;;;14.80;99.90;;;;;;4971811;28;20104;-75
2023/08/14 01:37:53;;;;;;;1.15;0.90;;;14.80;99.90;;;;;;4986720;28;20078;-75
2023/08/14 01:40:46;;;;;;;1.10;0.80;;;14.80;99.90;;;;;;5003099;28;20074;-75
2023/08/14 01:43:24;;;;;;;0.82;0.82;;;14.80;99.90;;;;;;4961551;28;20054;-75
2023/08/14 01:45:52;;;;;;;1.17;1.00;;;14.80;99.90;;;;;;4968008;28;20043;-75
2023/08/14 01:48:19;;;;;;;1.02;0.90;;;14.80;99.90;;;;;;4970580;28;20046;-74
2023/08/14 01:50:47;;;;;;;1.02;0.88;;;14.80;99.90;;;;;;4954501;28;20119;-74
2023/08/14 01:53:14;;;;;;;1.10;1.00;;;14.80;99.90;;;;;;4970869;28;20047;-75
2023/08/14 01:55:39;;;;;;;;;;;14.80;99.90;;;;;;4948793;28;20054;-75
2023/08/14 01:58:05;;;;;;;1.60;0.80;;;14.80;99.90;;;;;;4969164;28;19918;-75
2023/08/14 02:00:33;;;;;;;1.00;0.80;;;14.80;99.90;;;;;;4968228;28;20062;-75
2023/08/14 02:03:00;;;;;;;0.88;0.80;;;14.80;99.90;;;;;;4965756;28;20047;-75
2023/08/14 02:05:26;;;;;;;1.60;0.90;;;14.80;99.90;;;;;;4960276;28;20047;-75
2023/08/14 02:07:51;;;;;;;1.10;1.00;;;14.90;99.90;;;;;;4968751;28;20520;-74
2023/08/14 02:10:17;;;;;;;1.10;0.90;;;14.80;99.90;;;;;;4968952;28;20047;-75
2023/08/14 02:12:43;;;;;;;1.40;1.10;;;14.90;99.90;;;;;;4966215;28;20122;-75
2023/08/14 02:15:09;;;;;;;3.33;1.20;;;14.90;99.90;;;;;;4957630;28;20043;-75
2023/08/14 02:17:35;;;;;;;1.73;1.38;;;14.90;99.90;;;;;;4968481;28;20093;-74
2023/08/14 02:20:00;;;;;;;1.48;1.30;;;14.80;99.90;;;;;;4999777;28;20075;-74
2023/08/14 02:22:26;;;;;;;2.83;1.80;;;14.80;99.90;;;;;;4968716;28;20049;-74
2023/08/14 02:24:52;;;;;;;1.95;1.67;;;14.80;99.90;;;;;;4983143;28;20043;-74
2023/08/14 02:27:18;;;;;;;;;;;14.80;99.90;;;;;;4969089;28;20054;-74
2023/08/14 02:29:45;;;;;;;1.60;1.40;;;14.90;99.90;;;;;;4999176;28;19929;-74
2023/08/14 02:32:10;;;;;;;1.42;1.27;;;14.80;99.90;;;;;;4976908;28;20356;-74
2023/08/14 02:34:52;;;;;;;1.95;1.30;;;14.80;99.90;;;;;;4962983;28;20057;-74
2023/08/14 02:37:19;;;;;;;1.55;1.30;;;14.80;99.90;;;;;;4957697;28;20082;-74
2023/08/14 02:39:45;;;;;;;2.08;1.30;;;14.80;99.90;;;;;;4969795;28;20164;-74
2023/08/14 02:42:11;;;;;;;1.58;1.02;;;14.70;99.90;;;;;;4984197;28;20487;-74
2023/08/14 02:44:37;;;;;;;1.20;1.10;;;14.80;99.90;;;;;;4969364;28;20486;-74
2023/08/14 02:47:03;;;;;;;;;;;14.70;99.90;;;;;;4970578;28;20047;-74
2023/08/14 02:49:29;;;;;;;1.27;1.00;;;14.70;99.90;;;;;;4970375;28;19918;-74
2023/08/14 02:51:55;;;;;;;1.67;1.40;;;14.80;99.90;;;;;;4954307;28;20589;-74
2023/08/14 02:54:21;;;;;;;2.15;1.40;;;14.80;99.90;;;;;;4970176;28;20030;-74
2023/08/14 02:56:48;;;;;;;1.40;1.30;;;14.70;99.90;;;;;;4970323;28;20050;-74
2023/08/14 02:59:14;;;;;;;1.77;1.50;;;14.70;99.90;;;;;;4970159;28;20125;-74
2023/08/14 03:01:39;;;;;;;;;;;14.70;99.90;;;;;;4970618;28;20075;-74
2023/08/14 03:04:05;;;;;;;1.85;1.30;;;14.80;99.90;;;;;;4972000;28;19922;-74
2023/08/14 03:06:31;;;;;;;1.30;1.20;;;14.70;99.90;;;;;;4957385;28;20502;-74
2023/08/14 03:08:58;;;;;;;1.50;1.30;;;14.80;99.90;;;;;;4973783;28;20085;-74
2023/08/14 03:11:24;;;;;;;1.50;1.10;;;14.80;99.90;;;;;;4973779;28;20161;-74
2023/08/14 03:13:50;;;;;;;2.00;1.40;;;14.80;99.90;;;;;;4941578;28;20442;-74
2023/08/14 03:16:16;;;;;;;;;;;14.80;99.90;;;;;;4973774;28;20081;-74
2023/08/14 03:18:41;;;;;;;1.60;1.20;;;14.80;99.90;;;;;;4973306;28;20009;-74
2023/08/14 03:21:07;;;;;;;1.55;1.25;;;14.80;99.90;;;;;;4973458;28;20156;-74
2023/08/14 03:23:37;;;;;;;1.83;1.40;;;14.80;99.90;;;;;;4957284;28;20070;-74
2023/08/14 03:26:04;;;;;;;1.27;1.17;;;14.80;99.90;;;;;;4973458;28;20042;-74
2023/08/14 03:28:30;;;;;;;2.35;1.60;;;14.80;99.90;;;;;;4973035;28;20089;-74
2023/08/14 03:30:56;;;;;;;1.77;1.42;;;14.80;99.90;;;;;;4973282;28;20035;-74
2023/08/14 03:33:22;;;;;;;2.05;1.35;;;14.80;99.90;;;;;;4972945;28;20050;-74
2023/08/14 03:35:47;;;;;;;1.85;1.45;;;14.90;99.90;;;;;;4971948;28;20043;-74
2023/08/14 03:38:13;;;;;;;1.20;1.10;;;15.00;99.90;;;;;;4973160;28;20065;-74
2023/08/14 03:40:39;;;;;;;1.60;1.50;;;14.90;99.90;;;;;;4957085;28;20482;-74
2023/08/14 03:43:04;;;;;;;2.22;1.63;;;14.90;99.90;;;;;;4982501;28;20058;-74
2023/08/14 03:45:30;;;;;;;4.03;2.05;;;15.00;99.90;;;;;;4956765;28;20038;-74
2023/08/14 03:47:55;;;;;;;1.90;1.70;;;15.00;99.90;;;;;;4972794;28;20050;-74
2023/08/14 03:50:21;;;;;;;4.10;2.40;;;15.10;99.90;;;;;;4973171;28;20058;-74
2023/08/14 03:52:50;;;;;;;2.30;2.00;;;15.10;99.90;;;;;;4972705;28;20490;-74
2023/08/14 03:55:16;;;;;;;3.17;2.00;;;15.10;99.90;;;;;;4956369;28;20046;-74
2023/08/14 03:57:41;;;;;;;2.75;1.70;;;15.10;99.90;;;;;;4956686;28;20053;-74
2023/08/14 04:00:08;;;;;;;3.22;1.75;;;15.10;99.90;;;;;;4956629;28;20070;-75
2023/08/14 04:02:33;;;;;;;;;;;15.20;99.90;;;;;;4963042;28;20490;-75
2023/08/14 04:04:59;;;;;;;2.35;1.60;;;15.20;99.90;;;;;;5003321;28;19924;-75
2023/08/14 04:07:25;;;;;;;1.70;1.60;;;15.20;99.90;;;;;;4940162;28;20054;-75
2023/08/14 04:09:50;;;;;;;2.28;1.60;;;15.30;99.90;;;;;;4969713;28;20038;-74
2023/08/14 04:12:16;;;;;;;4.03;2.13;;;15.10;99.90;;;;;;4955857;28;20757;-75
2023/08/14 04:14:43;;;;;;;2.03;1.63;;;15.20;99.90;;;;;;4966982;28;20073;-75
2023/08/14 04:17:09;;;;;;;2.28;1.73;;;15.20;99.90;;;;;;4969209;28;20051;-74
2023/08/14 04:19:35;;;;;;;1.88;1.40;;;15.20;99.90;;;;;;4951035;28;20059;-74
2023/08/14 04:22:00;;;;;;;2.58;2.13;;;15.20;99.90;;;;;;4970194;28;20062;-74
2023/08/14 04:24:26;;;;;;;2.10;1.90;;;15.30;99.90;;;;;;4963686;28;20074;-74
2023/08/14 04:26:52;;;;;;;3.08;1.90;;;15.20;99.90;;;;;;4951246;28;20507;-74
2023/08/14 04:29:17;;;;;;;4.38;2.70;;;15.30;99.90;;;;;;4963965;28;20054;-74
2023/08/14 04:31:43;;;;;;;3.17;2.10;;;15.20;99.90;;;;;;5000273;28;20082;-74
2023/08/14 04:34:10;;;;;;;2.67;2.30;;;15.30;99.90;;;;;;4999300;28;20039;-74
2023/08/14 04:36:36;;;;;;;3.17;2.15;;;15.30;99.90;;;;;;4971771;28;20054;-74
2023/08/14 04:39:05;;;;;;;;;;;15.40;99.90;;;;;;4971056;28;20146;-74
2023/08/14 04:41:31;;;;;;;3.80;2.33;;;15.30;99.90;;;;;;4966585;28;20406;-74
2023/08/14 04:43:56;;;;;;;2.42;2.17;;;15.40;99.90;;;;;;4970095;28;20101;-74
2023/08/14 04:46:32;;;;;;;3.10;1.83;;;15.40;99.90;;;;;;4968715;28;20513;-75
2023/08/14 04:48:59;;;;;;;1.75;1.60;;;15.40;99.90;;;;;;4974192;28;20071;-75
2023/08/14 04:51:25;;;;;;;1.98;1.75;;;15.40;99.90;;;;;;4970586;28;20097;-75
2023/08/14 04:53:50;;;;;;;;;;;15.50;99.90;;;;;;4962491;28;20047;-75
2023/08/14 04:56:16;;;;;;;2.72;2.15;;;15.60;99.90;;;;;;5000331;28;20278;-75
2023/08/14 04:58:42;;;;;;;2.63;1.92;;;15.50;99.90;;;;;;4971485;28;20061;-75
2023/08/14 05:01:07;;;;;;;5.43;2.70;;;15.60;99.90;;;;;;4970875;28;20101;-75
2023/08/14 05:03:34;;;;;;;2.97;2.20;;;15.60;99.90;;;;;;4971252;28;20063;-75
2023/08/14 05:05:59;;;;;;;;;;;15.60;99.90;;;;;;4952836;28;20097;-76
2023/08/14 05:08:25;;;;;;;3.35;2.50;;;15.80;99.90;;;;;;4967042;28;19926;-75
2023/08/14 05:10:51;;;;;;;2.60;1.98;;;15.80;99.90;;;;;;4959825;28;20046;-75
2023/08/14 05:13:20;;;;;;;5.03;2.55;;;15.80;99.90;;;;;;4954973;28;20042;-75
2023/08/14 05:15:48;;;;;;;4.10;2.90;;;15.80;99.90;;;;;;4937531;28;20043;-83
2023/08/14 05:18:14;;;;;;;3.45;2.45;;;15.80;99.90;;;;;;4931311;29;20206;-73
2023/08/14 05:20:47;;;;;;;3.17;2.42;;;15.90;99.90;;;;;;4962385;28;20836;-74
2023/08/14 05:23:13;;;;;;;2.42;2.00;;;15.90;99.90;;;;;;4969756;28;20094;-74
2023/08/14 05:25:40;;;;;;;1.95;1.70;;;15.90;99.90;;;;;;4936075;28;20372;-74
2023/08/14 05:28:06;;;;;;;2.83;2.35;;;15.90;99.90;;;;;;4967332;28;20040;-74
2023/08/14 05:30:32;;;;;;;2.83;2.25;;;16.00;99.90;;;;;;4949121;28;20125;-74
2023/08/14 05:32:58;;;;;;;3.28;2.20;;;16.00;99.90;;;;;;4999400;28;20053;-74
2023/08/14 05:35:24;;;;;;;1.95;1.75;;;16.00;99.90;;;;;;4956248;28;20132;-74
2023/08/14 05:37:55;;;;;;;;;;;16.10;99.90;;;;;;4971105;28;20050;-74
2023/08/14 05:40:22;;;;;;;3.25;2.25;;;16.10;99.90;;;;;;5002422;28;19925;-74
2023/08/14 05:43:06;;;;;;;3.00;2.00;;;16.10;99.90;;;;;;4967996;28;21033;-75
2023/08/14 05:45:36;;;;;;;2.20;1.80;;;16.10;99.90;;;;;;5002102;28;20062;-75
2023/08/14 05:48:04;;;;;;;2.97;2.10;;;16.30;99.90;;;;;;4968331;28;20046;-75
2023/08/14 05:50:31;;;;;;;2.10;1.90;;;16.30;99.90;;;;;;5001638;28;20114;-75
2023/08/14 05:52:59;;;;;;;3.10;2.03;;;16.30;99.90;;;;;;4996596;28;20573;-75
2023/08/14 05:55:25;;;;;;;3.00;1.88;;;16.30;99.90;;;;;;4952588;28;20458;-75
2023/08/14 05:57:51;;;;;;;1.90;1.70;;;16.40;99.90;;;;;;4953369;28;20078;-75
2023/08/14 06:00:18;;;;;;;1.98;1.67;;;16.40;99.90;;;;;;4967310;28;20078;-75
2023/08/14 06:02:44;;;;;;;2.03;1.70;;;16.50;99.90;;;;;;4948164;28;20046;-75
2023/08/14 06:05:10;;;;;;;2.40;1.55;;;16.50;99.90;;;;;;4987725;28;20122;-74
2023/08/14 06:07:36;;;;;;;2.15;1.50;;;16.50;99.90;;;;;;4968091;28;20058;-74
2023/08/14 06:10:04;;;;;;;2.30;1.48;;;16.50;99.90;;;;;;4969586;28;20402;-75
2023/08/14 06:12:30;;;;;;;2.05;1.60;;;16.50;99.90;;;;;;4969880;28;20093;-75
2023/08/14 06:14:55;;;;;;;2.67;1.92;;;16.60;99.90;;;;;;4970400;28;20047;-74
2023/08/14 06:17:21;;;;;;;3.38;2.22;;;16.70;99.90;;;;;;4954261;28;20545;-74
2023/08/14 06:19:47;;;;;;;2.58;2.15;;;16.70;99.90;;;;;;4953991;28;20067;-74
2023/08/14 06:22:13;;;;;;;2.55;1.80;;;16.70;99.90;;;;;;4959184;28;20050;-74
2023/08/14 06:24:38;;;;;;;2.65;1.80;;;16.80;99.90;;;;;;4970353;28;20043;-75
2023/08/14 06:27:04;;;;;;;3.75;2.05;;;16.90;99.90;;;;;;4970180;28;20039;-74
2023/08/14 06:29:30;;;;;;;;;;;16.90;99.90;;;;;;4969309;28;20043;-75
2023/08/14 06:31:57;;;;;;;2.83;2.00;;;17.00;99.90;;;;;;4996881;28;19933;-74
2023/08/14 06:34:23;;;;;;;2.45;2.00;;;17.10;99.90;;;;;;4968278;28;20049;-74
2023/08/14 06:36:49;;;;;;;;;;;17.20;99.90;;;;;;4969474;28;20120;-74
2023/08/14 06:39:14;;;;;;;2.28;1.83;;;17.20;99.90;;;;;;4970784;28;20010;-73
2023/08/14 06:41:40;;;;;;;2.55;1.88;;;17.20;99.90;;;;;;4965096;28;20062;-74
2023/08/14 06:44:11;;;;;;;2.15;1.75;;;17.30;99.90;;;;;;4959716;28;20164;-74
2023/08/14 06:46:37;;;;;;;2.88;2.00;;;17.30;99.90;;;;;;4974084;28;20493;-74
2023/08/14 06:49:03;;;;;;;2.90;1.48;;;17.40;99.90;;;;;;4957624;28;20140;-74
2023/08/14 06:51:28;;;;;;;;;;;17.40;99.90;;;;;;4974219;28;20090;-74
2023/08/14 06:53:54;;;;;;;2.30;1.70;;;17.40;99.90;;;;;;4957883;28;19928;-74
2023/08/14 06:56:20;;;;;;;;;;;17.50;99.90;;;;;;4974051;28;20376;-74
2023/08/14 06:58:45;;;;;;;2.28;1.58;;;17.60;99.90;;;;;;4973433;28;19922;-74
2023/08/14 07:01:11;;;;;;;3.33;2.13;;;17.60;99.90;;;;;;4973654;28;20047;-74
2023/08/14 07:03:37;;;;;;;;;;;17.60;99.90;;;;;;4957858;28;20494;-74
2023/08/14 07:06:03;;;;;;;2.38;1.77;;;17.70;99.90;;;;;;4973646;28;19925;-74
2023/08/14 07:08:29;;;;;;;2.78;1.88;;;17.80;99.90;;;;;;4973278;28;20051;-74
2023/08/14 07:10:54;;;;;;;;;;;17.80;99.90;;;;;;4973863;28;20049;-74
2023/08/14 07:13:22;;;;;;;2.35;1.83;;;17.90;99.90;;;;;;5000632;28;20045;-74
2023/08/14 07:15:48;;;;;;;2.70;1.80;;;18.10;99.90;;;;;;4966605;28;20046;-74
2023/08/14 07:18:15;;;;;;;;;;;18.30;99.90;;;;;;4973559;28;20046;-74
2023/08/14 07:20:41;;;;;;;1.52;1.40;;;18.50;99.90;;;;;;4996317;28;19927;-74
2023/08/14 07:23:06;;;;;;;2.15;1.70;;;18.60;99.90;;;;;;4969251;28;20109;-75
2023/08/14 07:25:32;;;;;;;;;;;18.70;99.90;;;;;;4946180;28;20034;-75
2023/08/14 07:27:58;;;;;;;3.50;2.25;;;18.80;99.90;;;;;;4973033;28;20377;-74
2023/08/14 07:30:23;;;;;;;;;;;18.80;99.90;;;;;;4957474;28;20149;-74
2023/08/14 07:32:49;;;;;;;4.53;2.53;;;19.00;99.90;;;;;;5004444;28;20389;-74
2023/08/14 07:35:15;;;;;;;;;;;19.10;99.90;;;;;;4959387;28;20038;-74
2023/08/14 07:37:40;;;;;;;4.18;2.40;;;19.30;99.90;;;;;;4973316;28;19926;-75
2023/08/14 07:40:06;;;;;;;;;;;19.30;99.90;;;;;;4973402;28;20053;-75
2023/08/14 07:42:32;;;;;;;3.20;2.08;;;19.40;99.90;;;;;;4973035;28;19922;-75
2023/08/14 07:44:58;;;;;;;;;;;19.40;99.90;;;;;;4973244;28;20506;-75
2023/08/14 07:47:24;;;;;;;4.25;2.50;;;19.50;99.90;;;;;;4972640;28;19972;-75
2023/08/14 07:49:50;;;;;;;2.85;1.98;;;19.60;99.90;;;;;;4972439;28;20037;-75
2023/08/14 07:52:15;;;;;;;;;;;19.70;99.90;;;;;;4957177;28;20038;-74
2023/08/14 07:54:41;;;;;;;3.53;2.22;;;19.80;99.90;;;;;;4966955;28;19918;-75
2023/08/14 07:57:06;;;;;;;;;;;19.80;99.90;;;;;;4981316;28;20057;-75
2023/08/14 07:59:32;;;;;;;2.97;2.05;;;19.80;99.90;;;;;;4968743;28;19926;-74
2023/08/14 08:01:58;;;;;;;3.35;1.60;;;19.80;99.90;;;;;;4966233;28;20054;-75
2023/08/14 08:04:23;;;;;;;3.63;1.83;;;19.90;99.90;;;;;;4995611;28;20035;-75
2023/08/14 08:06:49;;;;;;;3.22;1.90;;;19.90;99.90;;;;;;4974299;28;20038;-76
2023/08/14 08:09:15;;;;;;;2.50;1.63;;;19.80;99.90;;;;;;4955918;28;20129;-75
2023/08/14 08:11:40;;;;;;;3.72;2.20;;;19.90;99.90;;;;;;4953091;28;20046;-75
2023/08/14 08:14:06;;;;;;;2.88;1.60;;;19.90;99.90;;;;;;4949900;28;20049;-74
2023/08/14 08:16:35;;;;;;;;;;;19.90;99.90;;;;;;4968307;28;20063;-75
2023/08/14 08:19:07;;;;;;;2.03;1.50;;;20.00;99.90;;;;;;4965992;28;19934;-75
2023/08/14 08:21:33;;;;;;;2.75;1.50;;;20.10;99.90;;;;;;4997968;28;20054;-75
2023/08/14 08:23:59;;;;;;;2.63;1.50;;;20.10;99.90;;;;;;4967421;28;20058;-73
2023/08/14 08:26:25;;;;;;;2.85;1.48;;;20.20;99.90;;;;;;4985700;28;20039;-74
2023/08/14 08:28:52;;;;;;;4.47;2.40;;;20.30;99.90;;;;;;4952485;28;20057;-75
2023/08/14 08:31:18;;;;;;;2.50;1.90;;;20.40;99.90;;;;;;4994824;28;20077;-74
2023/08/14 08:33:43;;;;;;;2.42;1.55;;;20.60;99.90;;;;;;4994657;28;20359;-74
2023/08/14 08:36:09;;;;;;;4.43;1.95;;;20.80;99.90;;;;;;4952822;28;20192;-74
2023/08/14 08:38:34;;;;;;;4.05;1.70;;;21.00;93.20;;;;;;4969254;28;20051;-74
2023/08/14 08:41:02;;;;;;;3.80;1.63;;;21.10;1.00;;;;;;4978676;28;20073;-75
2023/08/14 08:43:29;;;;;;;2.45;1.65;;;21.10;99.90;;;;;;4969356;28;20074;-74
2023/08/14 08:45:58;;;;;;;3.80;1.42;;;21.20;99.90;;;;;;4969678;28;20080;-74
2023/08/14 08:48:24;;;;;;;4.38;1.92;;;21.30;1.00;;;;;;4966318;28;20117;-74
2023/08/14 08:50:51;;;;;;;3.75;1.83;;;21.30;99.90;;;;;;4969368;28;20035;-74
2023/08/14 08:53:20;;;;;;;4.25;1.90;;;21.50;7.40;;;;;;4970861;28;20157;-76
2023/08/14 08:55:51;;;;;;;4.07;1.70;;;21.50;99.90;;;;;;4970175;28;20039;-75
2023/08/14 08:58:18;;;;;;;3.33;1.58;;;21.60;1.00;;;;;;4968475;28;20078;-75
2023/08/14 09:00:44;;;;;;;4.68;1.75;;;21.60;99.90;;;;;;4968356;28;20061;-74
2023/08/14 09:03:10;;;;;;;2.03;1.40;;;21.60;1.00;;;;;;4963434;28;20490;-74
2023/08/14 09:05:36;;;;;;;2.17;1.27;;;21.90;99.90;;;;;;5000594;28;20049;-74
2023/08/14 09:08:03;;;;;;;2.67;1.40;;;22.10;99.90;;;;;;4954661;28;20134;-74
2023/08/14 09:10:28;;;;;;;2.65;1.20;;;22.20;99.90;;;;;;4985712;28;20109;-74
2023/08/14 09:12:56;;;;;;;3.55;1.50;;;22.30;99.90;;;;;;4970019;28;20134;-74
2023/08/14 09:15:23;;;;;;;2.58;1.02;;;22.20;1.00;;;;;;4966168;28;20034;-74
2023/08/14 09:17:53;;;;;;;1.40;0.90;;;22.30;99.90;;;;;;4966290;28;20055;-74
2023/08/14 09:20:23;;;;;;;2.03;1.10;;;22.20;99.90;;;;;;4966953;28;20408;-75
2023/08/14 09:22:56;;;;;;;2.85;1.20;;;22.10;99.90;;;;;;4952519;28;20105;-75
2023/08/14 09:25:22;;;;;;;2.17;1.08;;;22.00;99.90;;;;;;4965321;28;20054;-74
2023/08/14 09:27:47;;;;;;;2.20;0.98;;;22.40;99.90;;;;;;4940718;29;20039;-74
2023/08/14 09:30:13;;;;;;;1.33;0.80;;;22.80;99.90;;;;;;4967310;28;20394;-75
2023/08/14 09:32:39;;;;;;;1.98;0.95;;;23.10;99.90;;;;;;4945471;28;20070;-75
2023/08/14 09:35:06;;;;;;;2.55;1.08;;;23.30;38.00;;;;;;4950808;28;20074;-75
2023/08/14 09:37:32;;;;;;;2.08;1.00;;;23.30;99.90;;;;;;4965742;28;20086;-74
2023/08/14 09:40:07;;;;;;;1.83;1.00;;;23.30;99.90;;;;;;4968007;28;20576;-75
2023/08/14 09:42:34;;;;;;;1.77;0.80;;;23.60;99.90;;;;;;4954631;28;20049;-75
2023/08/14 09:45:00;;;;;;;1.90;0.90;;;23.90;99.90;;;;;;4956909;28;20051;-75
2023/08/14 09:47:26;;;;;;;2.28;0.90;;;24.10;99.90;;;;;;4965591;28;20143;-75
2023/08/14 09:49:55;;;;;;;1.52;0.88;;;23.80;7.70;;;;;;4980015;28;20117;-75
2023/08/14 09:52:21;;;;;;;1.67;0.90;;;23.90;80.70;;;;;;4954225;28;20082;-75
2023/08/14 09:54:48;;;;;;;2.05;0.90;;;23.60;99.90;;;;;;4964254;28;20150;-75
2023/08/14 09:57:14;;;;;;;1.35;0.82;;;23.60;45.50;;;;;;4961203;28;20059;-75
2023/08/14 09:59:40;;;;;;;1.52;0.85;;;23.70;99.90;;;;;;4937378;28;20047;-74
2023/08/14 10:02:14;;;;;;;2.28;1.00;;;23.70;39.70;;;;;;4951942;28;20042;-75
2023/08/14 10:04:42;;;;;;;1.55;0.90;;;23.60;19.80;;;;;;4965233;28;20043;-75
2023/08/14 10:07:09;;;;;;;2.28;1.00;;;23.60;99.90;;;;;;4959730;28;20511;-75
2023/08/14 10:09:38;;;;;;;1.98;0.85;;;23.30;1.00;;;;;;4997265;28;20075;-75
2023/08/14 10:12:10;;;;;;;1.83;0.95;;;23.60;99.90;;;;;;4967725;28;20047;-75
2023/08/14 10:14:39;;;;;;;2.80;0.90;;;23.90;40.10;;;;;;4996216;28;20042;-75
2023/08/14 10:17:12;;;;;;;2.45;0.95;;;24.10;1.00;;;;;;4972017;28;20129;-75
2023/08/14 10:19:39;;;;;;;1.58;0.80;;;24.30;99.90;;;;;;4967473;28;20069;-75
2023/08/14 10:22:06;;;;;;;1.65;0.85;;;24.50;99.90;;;;;;4955810;28;20118;-75
2023/08/14 10:24:36;;;;;;;1.75;0.60;;;24.90;99.90;;;;;;4968598;28;20429;-75
2023/08/14 10:27:03;;;;;;;2.42;0.80;;;25.30;1.00;;;;;;4971119;28;20450;-76
2023/08/14 10:29:30;;;;;;;1.83;0.80;;;25.30;99.90;;;;;;4955202;28;20166;-76
2023/08/14 10:31:56;;;;;;;2.38;0.63;;;25.40;99.90;;;;;;4954002;28;20390;-76
2023/08/14 10:34:23;;;;;;;1.05;0.60;;;25.40;99.90;;;;;;4967974;28;20071;-76
2023/08/14 10:36:52;;;;;;;1.73;0.60;;;25.00;99.90;;;;;;4956781;28;20104;-76
2023/08/14 10:39:18;;;;;;;1.25;0.60;;;24.90;99.90;;;;;;4961188;28;20050;-76
2023/08/14 10:41:44;;;;;;;0.68;0.57;;;25.00;99.90;;;;;;4965443;28;20046;-76
2023/08/14 10:44:11;;;;;;;1.08;0.60;;;25.30;99.90;;;;;;4959956;28;20397;-75
2023/08/14 10:46:41;;;;;;;1.33;0.77;;;25.60;99.90;;;;;;4973657;28;20054;-76
2023/08/14 10:49:07;;;;;;;0.90;0.60;;;25.50;99.90;;;;;;4973552;28;20039;-76
2023/08/14 10:51:33;;;;;;;1.48;0.60;;;25.70;99.90;;;;;;4974080;28;20073;-76
2023/08/14 10:54:12;;;;;;;1.20;0.50;;;25.60;99.90;;;;;;4956177;28;20039;-76
2023/08/14 10:56:46;;;;;;;1.83;0.85;;;25.70;99.90;;;;;;4973341;28;20050;-76
2023/08/14 10:59:23;;;;;;;1.50;0.47;;;25.60;99.90;;;;;;4973279;28;20057;-76
2023/08/14 11:02:10;;;;;;;2.22;0.75;;;25.70;99.90;;;;;;4970898;28;20117;-77
2023/08/14 11:05:00;;;;;;;1.90;0.80;;;25.30;99.90;;;;;;4980127;28;20125;-76
2023/08/14 11:07:32;;;;;;;1.42;0.80;;;25.40;99.90;;;;;;4973305;28;20057;-76
2023/08/14 11:09:58;;;;;;;1.17;0.65;;;25.60;99.90;;;;;;4970432;28;20039;-75
2023/08/14 11:12:25;;;;;;;1.13;0.60;;;25.40;99.90;;;;;;4988673;28;20074;-75
2023/08/14 11:14:54;;;;;;;0.63;0.60;;;25.30;99.90;;;;;;4971741;28;20050;-76
2023/08/14 11:17:20;;;;;;;1.65;0.70;;;25.00;99.90;;;;;;5003173;28;20068;-76
2023/08/14 11:19:46;;;;;;;1.20;0.75;;;24.90;99.90;;;;;;4958871;28;20074;-76
2023/08/14 11:22:12;;;;;;;0.80;0.50;;;24.80;99.90;;;;;;4964334;28;20426;-76
2023/08/14 11:24:38;;;;;;;1.25;0.60;;;24.80;99.90;;;;;;4968990;28;20157;-77
2023/08/14 11:27:03;;;;;;;1.17;0.70;;;24.80;99.90;;;;;;4971074;28;20125;-76
2023/08/14 11:29:30;;;;;;;1.00;0.50;;;24.80;99.90;;;;;;4971949;28;20070;-76
2023/08/14 11:31:55;;;;;;;0.70;0.50;;;24.80;99.90;;;;;;4973172;28;20051;-75
2023/08/14 11:34:22;;;;;;;0.90;0.52;;;25.10;99.90;;;;;;4972605;28;20035;-77
2023/08/14 11:36:59;;;;;;;0.82;0.40;;;25.00;99.90;;;;;;4967608;28;20517;-77
2023/08/14 11:39:26;;;;;;;1.90;0.90;;;25.00;99.90;;;;;;4968226;28;20085;-77
2023/08/14 11:41:52;;;;;;;1.17;0.65;;;24.90;99.90;;;;;;4933068;28;20047;-75
2023/08/14 11:44:18;;;;;;;1.27;0.60;;;24.70;99.90;;;;;;4986313;28;20046;-76
2023/08/14 11:46:45;;;;;;;1.10;0.50;;;24.70;99.90;;;;;;4971242;28;20049;-77
2023/08/14 11:49:14;;;;;;;1.08;0.50;;;24.70;99.90;;;;;;4972439;28;20058;-76
2023/08/14 11:51:40;;;;;;;1.55;0.88;;;24.50;99.90;;;;;;4957374;28;20406;-76
2023/08/14 11:54:08;;;;;;;0.75;0.52;;;24.30;99.90;;;;;;4972452;28;20070;-77
2023/08/14 11:56:35;;;;;;;1.85;0.65;;;24.30;1.00;;;;;;4970393;28;20113;-77
2023/08/14 11:59:01;;;;;;;1.30;0.60;;;24.70;99.90;;;;;;4977236;28;20047;-75
2023/08/14 12:01:27;;;;;;;1.23;0.60;;;25.00;99.90;;;;;;4970917;28;20035;-75
2023/08/14 12:03:53;;;;;;;0.68;0.50;;;25.20;99.90;;;;;;4955926;28;20059;-75
2023/08/14 12:06:18;;;;;;;1.13;0.60;;;25.60;99.90;;;;;;4940537;28;20100;-74
2023/08/14 12:08:45;;;;;;;1.38;0.60;;;25.90;99.90;;;;;;4970692;28;20464;-76
2023/08/14 12:11:20;;;;;;;1.42;0.60;;;26.20;99.90;;;;;;4951770;28;20663;-77
2023/08/14 12:13:52;;;;;;;1.20;0.60;;;26.30;99.90;;;;;;4947947;29;20348;-77
2023/08/14 12:16:21;;;;;;;1.10;0.50;;;26.60;99.90;;;;;;4969056;28;20039;-77
2023/08/14 12:18:48;;;;;;;0.55;0.40;;;26.60;99.90;;;;;;4991693;28;20039;-77
2023/08/14 12:21:14;;;;;;;1.80;0.70;;;26.50;99.90;;;;;;4967035;28;20051;-75
2023/08/14 12:23:48;;;;;;;1.98;0.82;;;26.60;99.90;;;;;;4966003;28;20043;-76
2023/08/14 12:26:14;;;;;;;1.10;0.60;;;26.60;99.90;;;;;;4990733;28;20039;-77
2023/08/14 12:28:41;;;;;;;2.25;0.70;;;26.70;99.90;;;;;;4956533;28;20209;-74
2023/08/14 12:31:07;;;;;;;0.95;0.60;;;26.70;99.90;;;;;;4967366;28;20043;-75
2023/08/14 12:33:33;;;;;;;1.45;0.60;;;26.70;99.90;;;;;;4970815;28;20049;-75
2023/08/14 12:35:59;;;;;;;2.22;0.70;;;26.90;99.90;;;;;;4987421;28;20511;-75
2023/08/14 12:38:25;;;;;;;0.73;0.50;;;27.20;99.90;;;;;;4978129;28;20086;-75
2023/08/14 12:40:52;;;;;;;1.67;0.70;;;27.40;99.90;;;;;;4955982;28;20118;-75
2023/08/14 12:43:18;;;;;;;1.85;0.70;;;27.40;99.90;;;;;;4961490;28;20134;-75
2023/08/14 12:45:43;;;;;;;2.03;0.90;;;27.00;96.40;;;;;;4973040;28;20085;-75
2023/08/14 12:48:09;;;;;;;2.22;0.80;;;26.80;99.90;;;;;;4970937;28;20133;-75
2023/08/14 12:50:35;;;;;;;0.85;0.68;;;26.90;99.90;;;;;;4963410;28;20399;-76
2023/08/14 12:53:03;;;;;;;1.45;0.60;;;26.90;99.90;;;;;;4966769;28;20461;-75